This is the latest recevied weather packets stored in our database for station/object GW1699. If no packets are shown the sender has not sent any weather packets the latest 10 day(s).
| Time | Temp. | Humidity | Pressure | Rain* | Wind** | Luminosity | Snow |
|---|---|---|---|---|---|---|---|
| 1777661321 | 16.67° C | 35% | 1009.4 hPa | 0 mm | - | - | - |
| 1777660943 | 17.22° C | 34% | 1009.4 hPa | 0 mm | - | - | - |
| 1777658813 | 16.67° C | 38% | 1009.4 hPa | 0 mm | - | - | - |
| 1777653757 | 14.44° C | 47% | 1010.4 hPa | 0 mm | - | - | - |
| 1777646530 | 12.22° C | 65% | 1012.1 hPa | 0 mm | - | - | - |
| 1777645821 | 11.67° C | 74% | 1012.5 hPa | 0 mm | - | - | - |
| 1777645450 | 11.11° C | 70% | 1012.5 hPa | 0 mm | - | - | - |
| 1777643291 | 9.44° C | 83% | 1012.1 hPa | 0 mm | - | - | - |
| 1777639339 | 6.11° C | 99% | 1012.8 hPa | 0 mm | - | - | - |
| 1777638989 | 6.11° C | 99% | 1013.2 hPa | 0 mm | - | - | - |
| 1777638616 | 5.56° C | 99% | 1013.2 hPa | 0 mm | - | - | - |
| 1777630365 | 2.22° C | 99% | 1013.2 hPa | 0 mm | - | - | - |
| 1777629263 | 2.22° C | 99% | 1013.2 hPa | 0 mm | - | - | - |
| 1777628901 | 2.22° C | 99% | 1013.2 hPa | 0 mm | - | - | - |
| 1777626758 | 2.22° C | 99% | 1013.2 hPa | 0 mm | - | - | - |
| 1777625668 | 2.22° C | 99% | 1013.2 hPa | 0 mm | - | - | - |
| 1777624612 | 2.22° C | 99% | 1013.2 hPa | 0 mm | - | - | - |
| 1777624253 | 2.22° C | 99% | 1013.2 hPa | 0 mm | - | - | - |
| 1777623876 | 2.22° C | 99% | 1013.2 hPa | 0 mm | - | - | - |
| 1777623144 | 2.22° C | 99% | 1013.5 hPa | 0 mm | - | - | - |
| 1777621373 | 1.67° C | 99% | 1013.5 hPa | 0 mm | - | - | - |
| 1777620987 | 2.22° C | 99% | 1013.5 hPa | 0 mm | - | - | - |
| 1777618453 | 2.22° C | 99% | 1013.8 hPa | 0 mm | - | - | - |
| 1777615948 | 2.78° C | 99% | 1013.8 hPa | 0 mm | - | - | - |
| 1777613420 | 2.78° C | 99% | 1014.2 hPa | 0 mm | - | - | - |
* Rain since midnight (hover to see other rain measurements)
** Current wind speed in m/s (hover to see current wind gust speed)